createdAt,value
2023-06-21T00:00:04.613Z,94934.00
2023-06-21T00:01:04.711Z,94937.00
2023-06-21T00:02:04.706Z,94930.00
2023-06-21T00:03:04.779Z,94931.00
2023-06-21T00:04:04.849Z,94936.00
2023-06-21T00:05:04.795Z,94935.00
2023-06-21T00:06:04.814Z,94937.00
2023-06-21T00:07:04.864Z,94936.00
2023-06-21T00:08:04.915Z,94935.00
2023-06-21T00:09:04.925Z,94940.00
2023-06-21T00:10:05.050Z,94939.00
2023-06-21T00:11:05.094Z,94942.00
2023-06-21T00:13:02.840Z,94942.00
2023-06-21T00:14:02.872Z,94939.00
2023-06-21T00:15:02.813Z,94936.00
2023-06-21T00:16:02.839Z,94938.00
2023-06-21T00:17:02.813Z,94941.00
2023-06-21T00:18:02.841Z,94943.00
2023-06-21T00:19:02.804Z,94941.00
2023-06-21T00:20:02.778Z,94941.00
2023-06-21T00:21:02.760Z,94940.00
2023-06-21T00:22:02.786Z,94943.00
2023-06-21T00:23:02.789Z,94942.00
2023-06-21T00:24:02.812Z,94942.00
2023-06-21T00:25:02.777Z,94949.00
2023-06-21T00:26:02.793Z,94942.00
2023-06-21T00:27:02.776Z,94935.00
2023-06-21T00:28:02.734Z,94927.00
2023-06-21T00:29:02.713Z,94918.00
2023-06-21T00:30:02.745Z,94938.00
2023-06-21T00:31:02.803Z,94945.00
2023-06-21T00:32:02.700Z,94950.00
2023-06-21T00:33:02.735Z,94947.00
2023-06-21T00:34:02.681Z,94941.00
2023-06-21T00:35:02.674Z,94932.00
2023-06-21T00:36:03.521Z,94931.00
2023-06-21T00:37:02.691Z,94932.00
2023-06-21T00:38:02.662Z,94940.00
2023-06-21T00:39:02.672Z,94939.00
2023-06-21T00:40:02.623Z,94942.00
2023-06-21T00:41:02.635Z,94949.00
2023-06-21T00:42:02.671Z,94946.00
2023-06-21T00:43:02.621Z,94946.00
2023-06-21T00:44:02.631Z,94955.00
2023-06-21T00:45:02.620Z,94943.00
2023-06-21T00:46:02.725Z,94943.00
2023-06-21T00:47:02.611Z,94942.00
2023-06-21T00:48:02.621Z,94928.00
2023-06-21T00:49:02.604Z,94929.00
2023-06-21T00:50:02.610Z,94950.00
2023-06-21T00:51:02.565Z,94949.00
2023-06-21T00:52:02.586Z,94942.00
2023-06-21T00:53:02.575Z,94939.00
2023-06-21T00:54:02.585Z,94941.00
2023-06-21T00:55:02.590Z,94948.00
2023-06-21T00:56:02.621Z,94950.00
2023-06-21T00:57:02.684Z,94951.00
2023-06-21T00:58:02.682Z,94951.00
2023-06-21T00:59:02.810Z,94951.00
2023-06-21T01:00:02.780Z,94956.00
2023-06-21T01:01:02.828Z,94958.00
2023-06-21T01:02:02.909Z,94951.00
2023-06-21T01:03:02.904Z,94953.00
2023-06-21T01:04:02.945Z,94956.00
2023-06-21T01:05:03.035Z,94959.00
2023-06-21T01:06:03.082Z,94963.00
2023-06-21T01:07:03.138Z,94961.00
2023-06-21T01:08:03.169Z,94966.00
2023-06-21T01:09:03.237Z,94970.00
2023-06-21T01:10:03.219Z,94968.00
2023-06-21T01:11:03.247Z,94969.00
2023-06-21T01:12:03.408Z,94973.00
2023-06-21T01:13:03.364Z,94970.00
2023-06-21T01:14:03.409Z,94972.00
2023-06-21T01:15:03.470Z,94974.00
2023-06-21T01:16:03.532Z,94972.00
2023-06-21T01:17:03.612Z,94978.00
2023-06-21T01:18:03.681Z,94979.00
2023-06-21T01:19:03.733Z,94975.00
2023-06-21T01:20:03.778Z,94975.00
2023-06-21T01:21:03.836Z,94981.00
2023-06-21T01:22:03.908Z,94981.00
2023-06-21T01:23:03.997Z,94985.00
2023-06-21T01:24:04.136Z,94986.00
2023-06-21T01:25:04.062Z,94983.00
2023-06-21T01:26:04.152Z,94990.00
2023-06-21T01:27:04.239Z,94995.00
2023-06-21T01:28:04.258Z,94991.00
2023-06-21T01:29:04.306Z,94990.00
2023-06-21T01:30:04.368Z,94996.00
2023-06-21T01:31:04.414Z,94998.00
2023-06-21T01:32:04.568Z,94993.00
2023-06-21T01:33:04.604Z,94988.00
2023-06-21T01:34:04.599Z,94995.00
2023-06-21T01:35:04.652Z,94999.00
2023-06-21T01:36:04.732Z,95002.00
2023-06-21T01:37:04.791Z,95003.00
2023-06-21T01:38:04.835Z,95002.00
2023-06-21T01:39:04.907Z,95002.00
2023-06-21T01:40:04.932Z,95000.00
2023-06-21T01:42:23.764Z,95005.00
2023-06-21T01:43:23.746Z,95004.00
2023-06-21T01:44:23.759Z,95001.00
2023-06-21T01:45:23.729Z,95002.00
2023-06-21T01:46:23.769Z,95001.00
2023-06-21T01:47:23.725Z,95000.00
2023-06-21T01:48:23.727Z,95001.00
2023-06-21T01:49:23.716Z,95003.00
2023-06-21T01:50:23.696Z,95003.00
2023-06-21T01:51:23.736Z,95003.00
2023-06-21T01:52:23.680Z,95004.00
2023-06-21T01:53:23.669Z,95001.00
2023-06-21T01:54:23.721Z,95006.00
2023-06-21T01:55:23.655Z,95009.00
2023-06-21T01:56:23.673Z,95009.00
2023-06-21T01:57:23.670Z,95010.00
2023-06-21T01:58:23.651Z,95007.00
2023-06-21T01:59:23.640Z,95007.00
2023-06-21T02:00:23.641Z,95008.00
2023-06-21T02:01:23.637Z,95013.00
2023-06-21T02:02:23.682Z,95018.00
2023-06-21T02:03:23.616Z,95016.00
2023-06-21T02:04:23.608Z,95020.00
2023-06-21T02:05:23.636Z,95021.00
2023-06-21T02:06:23.723Z,95022.00
2023-06-21T02:07:23.613Z,95021.00
2023-06-21T02:08:23.598Z,95021.00
2023-06-21T02:09:23.596Z,95024.00
2023-06-21T02:10:23.562Z,95022.00
2023-06-21T02:11:23.644Z,95026.00
2023-06-21T02:12:23.658Z,95033.00
2023-06-21T02:13:23.563Z,95034.00
2023-06-21T02:14:23.556Z,95030.00
2023-06-21T02:15:23.565Z,95030.00
2023-06-21T02:16:23.523Z,95036.00
2023-06-21T02:17:23.580Z,95034.00
2023-06-21T02:18:23.523Z,95036.00
2023-06-21T02:19:23.605Z,95033.00
2023-06-21T02:20:23.922Z,95034.00
2023-06-21T02:21:23.567Z,95035.00
2023-06-21T02:22:23.646Z,95033.00
2023-06-21T02:23:23.676Z,95033.00
2023-06-21T02:24:23.804Z,95035.00
2023-06-21T02:25:23.799Z,95038.00
2023-06-21T02:26:23.886Z,95041.00
2023-06-21T02:27:23.968Z,95040.00
2023-06-21T02:28:24.007Z,95040.00
2023-06-21T02:29:24.049Z,95045.00
2023-06-21T02:30:24.135Z,95044.00
2023-06-21T02:31:24.206Z,95045.00
2023-06-21T02:32:24.293Z,95048.00
2023-06-21T02:33:24.354Z,95049.00
2023-06-21T02:34:24.520Z,95051.00
2023-06-21T02:35:24.493Z,95047.00
2023-06-21T02:36:24.533Z,95049.00
2023-06-21T02:37:24.606Z,95054.00
2023-06-21T02:38:24.674Z,95052.00
2023-06-21T02:39:24.711Z,95053.00
2023-06-21T02:40:24.821Z,95053.00
2023-06-21T02:41:24.831Z,95055.00
2023-06-21T02:42:24.920Z,95056.00
2023-06-21T02:43:24.974Z,95056.00
2023-06-21T02:44:25.100Z,95057.00
2023-06-21T02:45:25.065Z,95059.00
2023-06-21T02:46:25.150Z,95060.00
2023-06-21T02:47:25.179Z,95059.00
2023-06-21T02:48:25.264Z,95059.00
2023-06-21T02:49:25.322Z,95064.00
2023-06-21T02:50:25.555Z,95064.00
2023-06-21T02:51:25.447Z,95069.00
2023-06-21T02:52:25.522Z,95069.00
2023-06-21T02:53:25.556Z,95065.00
2023-06-21T02:54:25.602Z,95062.00
2023-06-21T02:55:25.712Z,95067.00
2023-06-21T02:56:25.776Z,95069.00
2023-06-21T02:57:25.807Z,95071.00
2023-06-21T02:58:25.886Z,95071.00
2023-06-21T02:59:25.945Z,95071.00
2023-06-21T03:00:26.274Z,95070.00
2023-06-21T03:01:26.150Z,95072.00
2023-06-21T03:02:26.156Z,95072.00
2023-06-21T03:03:26.299Z,95070.00
2023-06-21T03:04:26.244Z,95068.00
2023-06-21T03:05:26.328Z,95067.00
2023-06-21T03:06:26.382Z,95067.00
2023-06-21T03:07:26.435Z,95067.00
2023-06-21T03:08:26.494Z,95068.00
2023-06-21T03:09:26.567Z,95073.00
2023-06-21T03:10:26.892Z,95070.00
2023-06-21T03:11:26.703Z,95071.00
2023-06-21T03:12:26.725Z,95072.00
2023-06-21T03:13:26.803Z,95075.00
2023-06-21T03:14:26.876Z,95075.00
2023-06-21T03:15:26.926Z,95076.00
2023-06-21T03:16:26.995Z,95078.00
2023-06-21T03:17:27.069Z,95084.00
2023-06-21T03:18:27.108Z,95083.00
2023-06-21T03:19:27.151Z,95079.00
2023-06-21T03:20:27.585Z,95082.00
2023-06-21T03:21:27.300Z,95085.00
2023-06-21T03:22:27.328Z,95087.00
2023-06-21T03:23:27.391Z,95088.00
2023-06-21T03:24:27.447Z,95091.00
2023-06-21T03:25:27.479Z,95091.00
2023-06-21T03:26:27.487Z,95092.00
2023-06-21T03:27:27.519Z,95093.00
2023-06-21T03:28:27.577Z,95092.00
2023-06-21T03:29:27.574Z,95092.00
2023-06-21T03:30:27.894Z,95094.00
2023-06-21T03:31:27.694Z,95095.00
2023-06-21T03:32:27.714Z,95097.00
2023-06-21T03:33:27.713Z,95096.00
2023-06-21T03:34:27.758Z,95093.00
2023-06-21T03:35:27.793Z,95095.00
2023-06-21T03:36:27.881Z,95095.00
2023-06-21T03:37:28.007Z,95096.00
2023-06-21T03:38:27.988Z,95097.00
2023-06-21T03:39:28.029Z,95102.00
2023-06-21T03:40:28.289Z,95105.00
2023-06-21T03:41:28.141Z,95106.00
2023-06-21T03:42:28.222Z,95103.00
2023-06-21T03:43:28.269Z,95103.00
2023-06-21T03:44:28.356Z,95105.00
2023-06-21T03:45:28.423Z,95112.00
2023-06-21T03:46:28.482Z,95111.00
2023-06-21T03:47:28.565Z,95111.00
2023-06-21T03:48:28.570Z,95111.00
2023-06-21T03:49:28.662Z,95116.00
2023-06-21T03:50:28.949Z,95113.00
2023-06-21T03:51:28.779Z,95109.00
2023-06-21T03:52:28.863Z,95112.00
2023-06-21T03:53:28.925Z,95113.00
2023-06-21T03:54:28.971Z,95112.00
2023-06-21T03:55:28.984Z,95113.00
2023-06-21T03:56:29.066Z,95113.00
2023-06-21T03:57:29.157Z,95115.00
2023-06-21T03:58:29.178Z,95115.00
2023-06-21T03:59:29.231Z,95116.00
2023-06-21T04:00:29.485Z,95118.00
2023-06-21T04:01:29.340Z,95116.00
2023-06-21T04:02:29.338Z,95116.00
2023-06-21T04:03:29.329Z,95115.00
2023-06-21T04:04:29.324Z,95116.00
2023-06-21T04:05:29.363Z,95118.00
2023-06-21T04:06:29.382Z,95119.00
2023-06-21T04:07:29.390Z,95118.00
2023-06-21T04:08:29.416Z,95116.00
2023-06-21T04:09:29.377Z,95117.00
2023-06-21T04:10:29.608Z,95114.00
2023-06-21T04:11:29.418Z,95114.00
2023-06-21T04:12:29.454Z,95115.00
2023-06-21T04:13:29.457Z,95119.00
2023-06-21T04:14:29.453Z,95121.00
2023-06-21T04:15:29.463Z,95117.00
2023-06-21T04:16:29.459Z,95121.00
2023-06-21T04:17:29.494Z,95119.00
2023-06-21T04:18:29.462Z,95120.00
2023-06-21T04:19:29.484Z,95122.00
2023-06-21T04:20:29.767Z,95123.00
2023-06-21T04:21:29.521Z,95124.00
2023-06-21T04:22:29.533Z,95125.00
2023-06-21T04:23:29.557Z,95121.00
2023-06-21T04:24:29.646Z,95121.00
2023-06-21T04:25:29.627Z,95121.00
2023-06-21T04:26:29.645Z,95117.00
2023-06-21T04:27:29.740Z,95116.00
2023-06-21T04:28:29.770Z,95115.00
2023-06-21T04:29:29.865Z,95114.00
2023-06-21T04:30:29.999Z,95114.00
2023-06-21T04:31:30.006Z,95115.00
2023-06-21T04:32:30.028Z,95114.00
2023-06-21T04:33:30.031Z,95117.00
2023-06-21T04:34:30.068Z,95118.00
2023-06-21T04:35:30.078Z,95119.00
2023-06-21T04:36:30.060Z,95121.00
2023-06-21T04:37:30.138Z,95123.00
2023-06-21T04:38:30.064Z,95123.00
2023-06-21T04:39:30.060Z,95124.00
2023-06-21T04:40:30.044Z,95123.00
2023-06-21T04:41:30.052Z,95124.00
2023-06-21T04:42:30.017Z,95125.00
2023-06-21T04:43:30.015Z,95125.00
2023-06-21T04:44:30.035Z,95123.00
2023-06-21T04:45:30.077Z,95123.00
2023-06-21T04:46:30.038Z,95123.00
2023-06-21T04:47:30.061Z,95127.00
2023-06-21T04:48:30.045Z,95130.00
2023-06-21T04:49:30.032Z,95129.00
2023-06-21T04:50:30.057Z,95125.00
2023-06-21T04:51:30.039Z,95124.00
2023-06-21T04:52:30.044Z,95121.00
2023-06-21T04:53:30.187Z,95120.00
2023-06-21T04:54:30.031Z,95122.00
2023-06-21T04:55:30.335Z,95123.00
2023-06-21T04:56:30.060Z,95124.00
2023-06-21T04:57:30.059Z,95124.00
2023-06-21T04:58:30.064Z,95124.00
2023-06-21T04:59:30.093Z,95124.00
2023-06-21T05:00:30.339Z,95126.00
2023-06-21T05:01:30.147Z,95127.00
2023-06-21T05:02:30.257Z,95129.00
2023-06-21T05:03:30.285Z,95126.00
2023-06-21T05:04:30.194Z,95126.00
2023-06-21T05:05:32.144Z,95126.00
2023-06-21T05:06:30.176Z,95124.00
2023-06-21T05:07:30.188Z,95125.00
2023-06-21T05:08:30.175Z,95126.00
2023-06-21T05:09:30.160Z,95130.00
2023-06-21T05:10:32.121Z,95132.00
2023-06-21T05:11:30.173Z,95132.00
2023-06-21T05:12:30.137Z,95133.00
2023-06-21T05:13:30.152Z,95136.00
2023-06-21T05:14:30.130Z,95138.00
2023-06-21T05:15:30.119Z,95140.00
2023-06-21T05:16:30.132Z,95139.00
2023-06-21T05:17:30.145Z,95141.00
2023-06-21T05:18:30.084Z,95140.00
2023-06-21T05:19:30.095Z,95140.00
2023-06-21T05:20:30.291Z,95139.00
2023-06-21T05:21:30.071Z,95138.00
2023-06-21T05:22:30.110Z,95139.00
2023-06-21T05:23:30.074Z,95141.00
2023-06-21T05:24:30.080Z,95143.00
2023-06-21T05:25:30.029Z,95141.00
2023-06-21T05:26:30.080Z,95143.00
2023-06-21T05:27:30.053Z,95141.00
2023-06-21T05:28:30.051Z,95142.00
2023-06-21T05:29:30.029Z,95145.00
2023-06-21T05:30:30.384Z,95143.00
2023-06-21T05:31:30.021Z,95145.00
2023-06-21T05:32:30.066Z,95149.00
2023-06-21T05:33:30.016Z,95146.00
2023-06-21T05:34:29.999Z,95149.00
2023-06-21T05:35:30.000Z,95150.00
2023-06-21T05:36:30.013Z,95151.00
2023-06-21T05:37:30.000Z,95152.00
2023-06-21T05:38:29.970Z,95152.00
2023-06-21T05:39:29.958Z,95153.00
2023-06-21T05:40:30.321Z,95154.00
2023-06-21T05:41:29.946Z,95156.00
2023-06-21T05:42:29.958Z,95156.00
2023-06-21T05:43:29.959Z,95154.00
2023-06-21T05:44:29.941Z,95151.00
2023-06-21T05:45:29.925Z,95152.00
2023-06-21T05:46:29.955Z,95155.00
2023-06-21T05:47:29.972Z,95157.00
2023-06-21T05:48:29.904Z,95156.00
2023-06-21T05:49:29.907Z,95158.00
2023-06-21T05:50:30.029Z,95161.00
2023-06-21T05:51:29.856Z,95161.00
2023-06-21T05:52:29.911Z,95159.00
2023-06-21T05:53:29.878Z,95165.00
2023-06-21T05:54:29.866Z,95164.00
2023-06-21T05:55:29.843Z,95166.00
2023-06-21T05:56:29.830Z,95165.00
2023-06-21T05:57:29.833Z,95170.00
2023-06-21T05:58:29.835Z,95172.00
2023-06-21T05:59:29.806Z,95174.00
2023-06-21T06:00:30.198Z,95173.00
2023-06-21T06:01:29.839Z,95174.00
2023-06-21T06:02:29.943Z,95177.00
2023-06-21T06:03:29.840Z,95178.00
2023-06-21T06:04:29.781Z,95178.00
2023-06-21T06:05:29.808Z,95181.00
2023-06-21T06:06:29.789Z,95183.00
2023-06-21T06:07:29.780Z,95183.00
2023-06-21T06:08:29.756Z,95183.00
2023-06-21T06:09:29.821Z,95182.00
2023-06-21T06:10:29.946Z,95181.00
2023-06-21T06:11:29.745Z,95183.00
2023-06-21T06:12:29.738Z,95185.00
2023-06-21T06:13:29.708Z,95183.00
2023-06-21T06:14:29.729Z,95186.00
2023-06-21T06:15:29.741Z,95188.00
2023-06-21T06:16:29.699Z,95187.00
2023-06-21T06:17:29.732Z,95187.00
2023-06-21T06:18:29.682Z,95188.00
2023-06-21T06:19:29.693Z,95187.00
2023-06-21T06:20:30.035Z,95188.00
2023-06-21T06:21:29.647Z,95188.00
2023-06-21T06:22:29.677Z,95187.00
2023-06-21T06:23:29.657Z,95187.00
2023-06-21T06:24:29.640Z,95186.00
2023-06-21T06:25:29.615Z,95188.00
2023-06-21T06:26:29.706Z,95186.00
2023-06-21T06:27:29.808Z,95185.00
2023-06-21T06:28:29.764Z,95184.00
2023-06-21T06:29:29.791Z,95186.00
2023-06-21T06:30:30.143Z,95186.00
2023-06-21T06:31:29.968Z,95190.00
2023-06-21T06:32:29.937Z,95186.00
2023-06-21T06:33:29.982Z,95189.00
2023-06-21T06:34:30.030Z,95188.00
2023-06-21T06:35:30.138Z,95187.00
2023-06-21T06:36:30.143Z,95188.00
2023-06-21T06:37:32.422Z,95189.00
2023-06-21T06:38:30.402Z,95190.00
2023-06-21T06:39:30.448Z,95192.00
2023-06-21T06:40:30.790Z,95190.00
2023-06-21T06:41:30.562Z,95193.00
2023-06-21T06:42:30.607Z,95193.00
2023-06-21T06:43:30.703Z,95194.00
2023-06-21T06:44:30.746Z,95193.00
2023-06-21T06:45:30.810Z,95193.00
2023-06-21T06:46:30.865Z,95194.00
2023-06-21T06:47:30.960Z,95196.00
2023-06-21T06:48:30.930Z,95194.00
2023-06-21T06:49:30.918Z,95191.00
2023-06-21T06:50:31.080Z,95190.00
2023-06-21T06:51:30.927Z,95188.00
2023-06-21T06:52:30.920Z,95186.00
2023-06-21T06:53:30.927Z,95188.00
2023-06-21T06:54:30.952Z,95186.00
2023-06-21T06:55:30.950Z,95182.00
2023-06-21T06:56:30.953Z,95184.00
2023-06-21T06:57:38.147Z,95182.00
2023-06-21T06:58:31.936Z,95185.00
2023-06-21T06:59:30.954Z,95186.00
2023-06-21T07:00:31.304Z,95183.00
2023-06-21T07:01:30.899Z,95180.00
2023-06-21T07:02:30.964Z,95180.00
2023-06-21T07:03:30.987Z,95179.00
2023-06-21T07:04:30.985Z,95181.00
2023-06-21T07:05:31.116Z,95181.00
2023-06-21T07:06:30.868Z,95179.00
2023-06-21T07:07:33.608Z,95178.00
2023-06-21T07:08:30.898Z,95175.00
2023-06-21T07:09:30.911Z,95174.00
2023-06-21T07:10:31.248Z,95171.00
2023-06-21T07:11:30.901Z,95169.00
2023-06-21T07:12:30.896Z,95169.00
2023-06-21T07:13:30.893Z,95167.00
2023-06-21T07:14:30.889Z,95168.00
2023-06-21T07:15:30.881Z,95168.00
2023-06-21T07:16:30.839Z,95167.00
2023-06-21T07:17:30.968Z,95171.00
2023-06-21T07:18:30.848Z,95171.00
2023-06-21T07:19:30.854Z,95170.00
2023-06-21T07:20:31.302Z,95173.00
2023-06-21T07:21:30.975Z,95175.00
2023-06-21T07:22:30.847Z,95171.00
2023-06-21T07:23:30.907Z,95170.00
2023-06-21T07:24:30.836Z,95166.00
2023-06-21T07:25:30.834Z,95162.00
2023-06-21T07:26:30.806Z,95160.00
2023-06-21T07:27:30.998Z,95159.00
2023-06-21T07:28:30.813Z,95156.00
2023-06-21T07:29:30.791Z,95155.00
2023-06-21T07:30:31.254Z,95156.00
2023-06-21T07:31:30.857Z,95157.00
2023-06-21T07:32:32.162Z,95156.00
2023-06-21T07:33:30.801Z,95153.00
2023-06-21T07:34:30.902Z,95150.00
2023-06-21T07:35:30.956Z,95147.00
2023-06-21T07:36:30.774Z,95144.00
2023-06-21T07:37:30.745Z,95141.00
2023-06-21T07:38:30.714Z,95142.00
2023-06-21T07:39:41.369Z,95142.00
2023-06-21T07:40:31.888Z,95144.00
2023-06-21T07:41:30.717Z,95143.00
2023-06-21T07:42:30.719Z,95141.00
2023-06-21T07:43:30.742Z,95142.00
2023-06-21T07:44:30.677Z,95140.00
2023-06-21T07:45:30.916Z,95138.00
2023-06-21T07:46:30.740Z,95135.00
2023-06-21T07:47:30.702Z,95132.00
2023-06-21T07:48:30.675Z,95126.00
2023-06-21T07:49:30.702Z,95126.00
2023-06-21T07:50:30.695Z,95126.00
2023-06-21T07:51:30.700Z,95127.00
2023-06-21T07:52:30.642Z,95127.00
2023-06-21T07:53:32.020Z,95128.00
2023-06-21T07:54:30.719Z,95128.00
2023-06-21T07:55:31.001Z,95128.00
2023-06-21T07:56:30.801Z,95124.00
2023-06-21T07:57:30.822Z,95122.00
2023-06-21T07:58:30.873Z,95120.00
2023-06-21T07:59:30.892Z,95118.00
2023-06-21T08:00:30.913Z,95119.00
2023-06-21T08:01:31.020Z,95116.00
2023-06-21T08:02:31.075Z,95114.00
2023-06-21T08:03:31.081Z,95113.00
2023-06-21T08:04:31.097Z,95113.00
2023-06-21T08:05:31.371Z,95112.00
2023-06-21T08:06:31.374Z,95111.00
2023-06-21T08:07:31.118Z,95110.00
2023-06-21T08:08:31.130Z,95107.00
2023-06-21T08:09:31.110Z,95107.00
2023-06-21T08:10:31.141Z,95104.00
2023-06-21T08:11:31.108Z,95101.00
2023-06-21T08:12:31.130Z,95103.00
2023-06-21T08:13:31.157Z,95102.00
2023-06-21T08:14:31.121Z,95099.00
2023-06-21T08:15:31.234Z,95098.00
2023-06-21T08:16:31.120Z,95099.00
2023-06-21T08:17:31.171Z,95095.00
2023-06-21T08:18:31.152Z,95094.00
2023-06-21T08:19:31.095Z,95092.00
2023-06-21T08:20:31.104Z,95090.00
2023-06-21T08:21:31.113Z,95090.00
2023-06-21T08:22:31.116Z,95087.00
2023-06-21T08:23:31.133Z,95084.00
2023-06-21T08:24:31.140Z,95084.00
2023-06-21T08:25:31.263Z,95085.00
2023-06-21T08:26:31.157Z,95084.00
2023-06-21T08:27:31.157Z,95080.00
2023-06-21T08:28:31.204Z,95081.00
2023-06-21T08:29:31.198Z,95081.00
2023-06-21T08:30:31.224Z,95082.00
2023-06-21T08:31:31.279Z,95080.00
2023-06-21T08:32:31.290Z,95078.00
2023-06-21T08:33:31.298Z,95078.00
2023-06-21T08:34:31.322Z,95072.00
2023-06-21T08:35:31.387Z,95070.00
2023-06-21T08:36:31.318Z,95071.00
2023-06-21T08:37:31.293Z,95068.00
2023-06-21T08:38:31.297Z,95069.00
2023-06-21T08:39:32.400Z,95067.00
2023-06-21T08:40:31.279Z,95066.00
2023-06-21T08:41:31.289Z,95066.00
2023-06-21T08:42:31.267Z,95065.00
2023-06-21T08:43:31.265Z,95068.00
2023-06-21T08:44:31.266Z,95068.00
2023-06-21T08:45:31.372Z,95067.00
2023-06-21T08:46:31.302Z,95067.00
2023-06-21T08:47:31.308Z,95066.00
2023-06-21T08:48:31.250Z,95064.00
2023-06-21T08:49:31.274Z,95062.00
2023-06-21T08:50:31.258Z,95060.00
2023-06-21T08:51:31.267Z,95057.00
2023-06-21T08:52:31.224Z,95054.00
2023-06-21T08:53:31.227Z,95053.00
2023-06-21T08:54:31.265Z,95050.00
2023-06-21T08:55:31.203Z,95048.00
2023-06-21T08:56:31.228Z,95047.00
2023-06-21T08:57:31.258Z,95042.00
2023-06-21T08:58:31.211Z,95041.00
2023-06-21T08:59:31.204Z,95044.00
2023-06-21T09:00:31.301Z,95040.00
2023-06-21T09:01:31.235Z,95039.00
2023-06-21T09:02:31.320Z,95039.00
2023-06-21T09:03:31.319Z,95037.00
2023-06-21T09:04:31.417Z,95038.00
2023-06-21T09:05:31.240Z,95039.00
2023-06-21T09:06:31.263Z,95039.00
2023-06-21T09:07:31.357Z,95042.00
2023-06-21T09:08:31.293Z,95043.00
2023-06-21T09:09:31.249Z,95039.00
2023-06-21T09:10:31.502Z,95038.00
2023-06-21T09:11:31.288Z,95040.00
2023-06-21T09:12:31.311Z,95044.00
2023-06-21T09:13:31.384Z,95044.00
2023-06-21T09:14:31.411Z,95041.00
2023-06-21T09:15:31.456Z,95037.00
2023-06-21T09:16:31.525Z,95041.00
2023-06-21T09:17:31.648Z,95042.00
2023-06-21T09:18:31.643Z,95040.00
2023-06-21T09:19:32.785Z,95042.00
2023-06-21T09:20:31.929Z,95042.00
2023-06-21T09:21:31.794Z,95042.00
2023-06-21T09:22:31.860Z,95044.00
2023-06-21T09:23:31.911Z,95042.00
2023-06-21T09:24:31.992Z,95047.00
2023-06-21T09:25:32.077Z,95046.00
2023-06-21T09:26:32.117Z,95042.00
2023-06-21T09:27:32.181Z,95048.00
2023-06-21T09:28:32.243Z,95047.00
2023-06-21T09:29:32.272Z,95047.00
2023-06-21T09:30:37.897Z,95042.00
2023-06-21T09:31:33.357Z,95045.00
2023-06-21T09:32:32.435Z,95045.00
2023-06-21T09:33:32.456Z,95044.00
2023-06-21T09:34:32.331Z,95044.00
2023-06-21T09:35:32.295Z,95041.00
2023-06-21T09:36:32.404Z,95041.00
2023-06-21T09:37:32.323Z,95046.00
2023-06-21T09:38:32.297Z,95045.00
2023-06-21T09:39:32.303Z,95047.00
2023-06-21T09:40:32.285Z,95045.00
2023-06-21T09:41:32.325Z,95047.00
2023-06-21T09:42:32.317Z,95044.00
2023-06-21T09:43:32.435Z,95045.00
2023-06-21T09:44:32.459Z,95049.00
2023-06-21T09:45:32.513Z,95048.00
2023-06-21T09:46:32.681Z,95048.00
2023-06-21T09:47:32.725Z,95046.00
2023-06-21T09:48:32.828Z,95043.00
2023-06-21T09:49:32.797Z,95042.00
2023-06-21T09:50:32.993Z,95046.00
2023-06-21T09:51:32.893Z,95045.00
2023-06-21T09:52:32.902Z,95048.00
2023-06-21T09:53:32.888Z,95047.00
2023-06-21T09:54:32.926Z,95047.00
2023-06-21T09:55:32.940Z,95047.00
2023-06-21T09:56:32.989Z,95047.00
2023-06-21T09:57:32.960Z,95046.00
2023-06-21T09:58:33.036Z,95047.00
2023-06-21T09:59:32.971Z,95047.00
2023-06-21T10:00:33.036Z,95046.00
2023-06-21T10:01:33.107Z,95047.00
2023-06-21T10:02:33.696Z,95046.00
2023-06-21T10:03:33.102Z,95049.00
2023-06-21T10:04:33.061Z,95045.00
2023-06-21T10:05:33.074Z,95043.00
2023-06-21T10:06:33.131Z,95042.00
2023-06-21T10:07:33.102Z,95041.00
2023-06-21T10:08:33.139Z,95040.00
2023-06-21T10:09:33.186Z,95041.00
2023-06-21T10:10:33.138Z,95041.00
2023-06-21T10:11:33.123Z,95042.00
2023-06-21T10:12:33.126Z,95045.00
2023-06-21T10:13:33.163Z,95045.00
2023-06-21T10:14:33.123Z,95046.00
2023-06-21T10:15:33.652Z,95044.00
2023-06-21T10:16:33.133Z,95045.00
2023-06-21T10:17:33.139Z,95044.00
2023-06-21T10:18:33.216Z,95043.00
2023-06-21T10:19:33.119Z,95043.00
2023-06-21T10:20:33.165Z,95044.00
2023-06-21T10:21:33.211Z,95045.00
2023-06-21T10:22:33.290Z,95047.00
2023-06-21T10:23:33.352Z,95043.00
2023-06-21T10:24:33.410Z,95042.00
2023-06-21T10:25:33.463Z,95041.00
2023-06-21T10:26:33.517Z,95038.00
2023-06-21T10:27:33.578Z,95037.00
2023-06-21T10:28:33.663Z,95036.00
2023-06-21T10:29:33.708Z,95036.00
2023-06-21T10:30:33.765Z,95038.00
2023-06-21T10:31:33.915Z,95038.00
2023-06-21T10:32:33.973Z,95036.00
2023-06-21T10:33:33.930Z,95039.00
2023-06-21T10:34:33.982Z,95039.00
2023-06-21T10:35:33.992Z,95036.00
2023-06-21T10:36:33.984Z,95034.00
2023-06-21T10:37:34.002Z,95034.00
2023-06-21T10:38:33.997Z,95031.00
2023-06-21T10:39:33.990Z,95031.00
2023-06-21T10:40:34.006Z,95031.00
2023-06-21T10:41:34.017Z,95031.00
2023-06-21T10:42:34.087Z,95031.00
2023-06-21T10:43:34.160Z,95030.00
2023-06-21T10:44:34.226Z,95028.00
2023-06-21T10:45:34.251Z,95028.00
2023-06-21T10:46:34.434Z,95028.00
2023-06-21T10:47:34.416Z,95025.00
2023-06-21T10:48:34.443Z,95023.00
2023-06-21T10:49:34.518Z,95021.00
2023-06-21T10:50:34.504Z,95021.00
2023-06-21T10:51:34.601Z,95021.00
2023-06-21T10:52:34.667Z,95021.00
2023-06-21T10:53:34.676Z,95015.00
2023-06-21T10:54:34.733Z,95015.00
2023-06-21T10:55:34.753Z,95009.00
2023-06-21T10:56:34.805Z,95012.00
2023-06-21T10:57:34.923Z,95011.00
2023-06-21T10:58:34.962Z,95008.00
2023-06-21T10:59:34.956Z,95009.00
2023-06-21T11:00:34.994Z,95011.00
2023-06-21T11:01:35.132Z,95009.00
2023-06-21T11:02:35.129Z,95010.00
2023-06-21T11:03:35.144Z,95010.00
2023-06-21T11:04:42.307Z,95004.00
2023-06-21T11:05:36.182Z,95007.00
2023-06-21T11:06:40.157Z,95006.00
2023-06-21T11:07:36.183Z,95007.00
2023-06-21T11:08:35.156Z,95007.00
2023-06-21T11:09:35.174Z,95009.00
2023-06-21T11:10:35.128Z,95003.00
2023-06-21T11:11:35.128Z,95006.00
2023-06-21T11:12:35.137Z,95006.00
2023-06-21T11:13:35.139Z,95005.00
2023-06-21T11:14:35.115Z,95004.00
2023-06-21T11:15:35.125Z,95005.00
2023-06-21T11:16:35.175Z,95005.00
2023-06-21T11:17:35.162Z,95008.00
2023-06-21T11:18:35.126Z,95009.00
2023-06-21T11:19:35.142Z,95007.00
2023-06-21T11:20:35.220Z,95002.00
2023-06-21T11:21:35.311Z,95003.00
2023-06-21T11:22:35.336Z,95008.00
2023-06-21T11:23:35.374Z,95007.00
2023-06-21T11:24:35.452Z,95009.00
2023-06-21T11:25:35.529Z,95007.00
2023-06-21T11:26:35.590Z,95007.00
2023-06-21T11:27:35.603Z,95008.00
2023-06-21T11:28:35.699Z,95011.00
2023-06-21T11:29:35.725Z,95012.00
2023-06-21T11:30:35.801Z,95013.00
2023-06-21T11:31:35.921Z,95008.00
2023-06-21T11:32:35.964Z,95011.00
2023-06-21T11:33:36.079Z,95005.00
2023-06-21T11:34:36.075Z,95005.00
2023-06-21T11:35:36.149Z,95001.00
2023-06-21T11:36:36.185Z,95002.00
2023-06-21T11:37:36.292Z,95006.00
2023-06-21T11:38:36.352Z,95003.00
2023-06-21T11:39:36.357Z,95003.00
2023-06-21T11:40:37.917Z,95004.00
2023-06-21T11:41:36.432Z,95004.00
2023-06-21T11:42:36.528Z,95001.00
2023-06-21T11:43:36.505Z,94998.00
2023-06-21T11:44:36.560Z,95004.00
2023-06-21T11:45:36.802Z,95007.00
2023-06-21T11:46:36.657Z,94998.00